createdAt,value
2022-11-29T00:01:02.296Z,7.30
2022-11-29T00:04:26.070Z,7.30
2022-11-29T00:07:49.671Z,7.30
2022-11-29T00:11:36.918Z,7.40
2022-11-29T00:15:01.816Z,7.40
2022-11-29T00:18:26.225Z,7.30
2022-11-29T00:21:50.183Z,7.10
2022-11-29T00:25:13.787Z,7.20
2022-11-29T00:28:38.148Z,7.30
2022-11-29T00:32:03.228Z,7.20
2022-11-29T00:35:26.906Z,7.20
2022-11-29T00:38:50.604Z,7.20
2022-11-29T00:42:15.427Z,7.30
2022-11-29T00:45:39.093Z,7.30
2022-11-29T00:49:04.470Z,7.40
2022-11-29T00:52:28.058Z,7.30
2022-11-29T00:55:53.776Z,7.40
2022-11-29T00:59:17.576Z,7.40
2022-11-29T01:02:41.234Z,7.40
2022-11-29T01:06:08.524Z,7.40
2022-11-29T01:09:32.217Z,7.30
2022-11-29T01:12:56.343Z,7.20
2022-11-29T01:16:20.136Z,7.10
2022-11-29T01:19:49.336Z,7.10
2022-11-29T01:23:15.860Z,7.00
2022-11-29T01:26:39.456Z,7.00
2022-11-29T01:30:03.609Z,7.10
2022-11-29T01:33:27.412Z,7.00
2022-11-29T01:36:51.224Z,7.00
2022-11-29T01:40:16.364Z,6.90
2022-11-29T01:43:56.291Z,6.90
2022-11-29T01:47:20.154Z,7.00
2022-11-29T01:50:43.929Z,7.10
2022-11-29T01:54:10.609Z,7.20
2022-11-29T01:57:37.874Z,7.30
2022-11-29T02:01:02.570Z,7.30
2022-11-29T02:04:26.439Z,7.20
2022-11-29T02:07:54.579Z,7.10
2022-11-29T02:11:52.185Z,7.10
2022-11-29T02:15:26.788Z,7.20
2022-11-29T02:19:01.208Z,7.20
2022-11-29T02:22:30.321Z,7.30
2022-11-29T02:26:08.092Z,7.30
2022-11-29T02:30:10.157Z,7.30
2022-11-29T02:33:57.572Z,7.30
2022-11-29T02:37:42.535Z,7.50
2022-11-29T02:41:31.084Z,7.50
2022-11-29T02:45:08.199Z,7.60
2022-11-29T02:48:50.137Z,7.50
2022-11-29T02:52:20.370Z,7.40
2022-11-29T02:55:55.378Z,7.40
2022-11-29T02:59:34.637Z,7.50
2022-11-29T03:03:04.735Z,7.50
2022-11-29T03:06:37.695Z,7.50
2022-11-29T03:10:09.397Z,7.50
2022-11-29T03:13:49.330Z,7.50
2022-11-29T03:17:21.487Z,7.50
2022-11-29T03:20:58.991Z,7.60
2022-11-29T03:24:32.589Z,7.60
2022-11-29T03:28:04.168Z,7.50
2022-11-29T03:31:33.352Z,7.40
2022-11-29T03:35:03.640Z,7.40
2022-11-29T03:38:33.600Z,7.30
2022-11-29T03:42:03.265Z,7.30
2022-11-29T03:45:32.232Z,7.30
2022-11-29T03:49:00.432Z,7.40
2022-11-29T03:52:30.608Z,7.40
2022-11-29T03:55:57.965Z,7.40
2022-11-29T03:59:37.107Z,7.40
2022-11-29T04:03:34.015Z,7.40
2022-11-29T04:07:08.808Z,7.60
2022-11-29T04:11:01.985Z,7.60
2022-11-29T04:14:59.766Z,7.40
2022-11-29T04:19:10.568Z,7.40
2022-11-29T04:22:55.404Z,7.20
2022-11-29T04:26:44.303Z,7.30
2022-11-29T04:30:18.317Z,7.40
2022-11-29T04:34:12.080Z,7.40
2022-11-29T04:38:10.523Z,7.50
2022-11-29T04:42:05.895Z,7.50
2022-11-29T04:45:56.015Z,7.60
2022-11-29T04:49:43.519Z,7.50
2022-11-29T04:53:30.050Z,7.50
2022-11-29T04:57:02.881Z,7.40
2022-11-29T05:00:27.174Z,7.50
2022-11-29T05:03:58.412Z,7.50
2022-11-29T05:07:30.872Z,7.50
2022-11-29T05:11:05.015Z,7.50
2022-11-29T05:14:37.704Z,7.50
2022-11-29T05:18:10.395Z,7.60
2022-11-29T05:21:48.043Z,7.50
2022-11-29T05:25:32.240Z,7.50
2022-11-29T05:29:04.359Z,7.60
2022-11-29T05:32:34.624Z,7.70
2022-11-29T05:36:11.487Z,7.70
2022-11-29T05:39:49.195Z,7.60
2022-11-29T05:43:24.568Z,7.50
2022-11-29T05:46:55.680Z,7.70
2022-11-29T05:50:24.551Z,7.70
2022-11-29T05:53:57.689Z,7.70
2022-11-29T05:57:32.504Z,7.80
2022-11-29T06:01:04.567Z,7.70
2022-11-29T06:04:36.690Z,7.70
2022-11-29T06:08:04.946Z,7.60
2022-11-29T06:11:34.159Z,7.60
2022-11-29T06:15:35.507Z,7.50
2022-11-29T06:19:29.917Z,7.60
2022-11-29T06:23:11.358Z,7.60
2022-11-29T06:26:53.897Z,7.60
2022-11-29T06:30:22.235Z,7.70
2022-11-29T06:33:56.217Z,7.80
2022-11-29T06:37:26.255Z,7.80
2022-11-29T06:40:58.620Z,7.80
2022-11-29T06:44:26.571Z,7.80
2022-11-29T06:47:58.208Z,7.80
2022-11-29T06:51:30.277Z,7.90
2022-11-29T06:55:14.822Z,7.90
2022-11-29T06:58:56.540Z,8.00
2022-11-29T07:02:37.461Z,8.00
2022-11-29T07:06:12.436Z,8.10
2022-11-29T07:09:36.699Z,8.00
2022-11-29T07:13:00.919Z,8.10
2022-11-29T07:18:54.236Z,8.20
2022-11-29T07:22:34.397Z,8.00
2022-11-29T07:26:07.584Z,8.00
2022-11-29T07:29:41.030Z,8.00
2022-11-29T07:33:16.666Z,8.00
2022-11-29T07:36:50.475Z,8.10
2022-11-29T07:40:17.766Z,8.20
2022-11-29T07:43:48.370Z,8.20
2022-11-29T07:47:12.224Z,8.20
2022-11-29T07:50:36.909Z,8.10
2022-11-29T07:54:01.804Z,8.20
2022-11-29T07:57:26.077Z,8.10
2022-11-29T08:00:49.817Z,8.20
2022-11-29T08:04:13.907Z,8.20
2022-11-29T08:07:38.628Z,8.20
2022-11-29T08:11:09.088Z,8.20
2022-11-29T08:14:33.278Z,8.20
2022-11-29T08:17:56.964Z,8.40
2022-11-29T08:21:20.657Z,8.50
2022-11-29T08:24:44.654Z,8.50
2022-11-29T08:28:10.687Z,8.50
2022-11-29T08:31:34.422Z,8.60
2022-11-29T08:34:58.310Z,8.60
2022-11-29T08:38:21.961Z,8.70
2022-11-29T08:41:45.834Z,8.70
2022-11-29T08:45:12.282Z,8.60
2022-11-29T08:48:36.910Z,8.60
2022-11-29T08:52:14.435Z,8.60
2022-11-29T08:55:40.600Z,8.60
2022-11-29T08:59:04.686Z,8.70
2022-11-29T09:02:29.712Z,8.70
2022-11-29T09:05:53.819Z,8.80
2022-11-29T09:09:18.332Z,9.00
2022-11-29T09:12:44.217Z,9.00
2022-11-29T09:16:09.233Z,8.80
2022-11-29T09:19:34.345Z,8.80
2022-11-29T09:22:59.542Z,8.80
2022-11-29T09:26:23.158Z,8.80
2022-11-29T09:29:46.850Z,8.80
2022-11-29T09:33:10.452Z,8.80
2022-11-29T09:36:35.792Z,8.80
2022-11-29T09:39:59.454Z,8.90
2022-11-29T09:43:30.810Z,8.90
2022-11-29T09:47:01.458Z,9.00
2022-11-29T09:50:32.909Z,9.00
2022-11-29T09:54:15.953Z,9.00
2022-11-29T09:57:43.847Z,9.00
2022-11-29T10:01:12.964Z,9.00
2022-11-29T10:04:41.418Z,8.80
2022-11-29T10:08:10.761Z,8.80
2022-11-29T10:11:42.344Z,8.90
2022-11-29T10:15:13.717Z,8.90
2022-11-29T10:18:41.353Z,8.90
2022-11-29T10:22:08.855Z,8.90
2022-11-29T10:25:37.223Z,8.80
2022-11-29T10:29:02.319Z,8.90
2022-11-29T10:32:30.834Z,9.00
2022-11-29T10:35:58.685Z,9.10
2022-11-29T10:39:26.509Z,9.10
2022-11-29T10:42:52.332Z,9.20
2022-11-29T10:46:27.171Z,9.20
2022-11-29T10:49:50.848Z,9.30
2022-11-29T10:53:18.114Z,9.30
2022-11-29T10:56:43.600Z,9.30
2022-11-29T11:00:09.908Z,9.50
2022-11-29T11:03:41.357Z,9.50
2022-11-29T11:07:07.224Z,9.50
2022-11-29T11:10:31.724Z,9.40
2022-11-29T11:14:00.139Z,9.50
2022-11-29T11:17:26.916Z,9.50
2022-11-29T11:20:56.138Z,9.50
2022-11-29T11:24:24.961Z,9.50
2022-11-29T11:27:49.484Z,9.60
2022-11-29T11:31:14.661Z,9.60
2022-11-29T11:34:41.121Z,9.50
2022-11-29T11:38:06.078Z,9.50
2022-11-29T11:41:46.067Z,9.60
2022-11-29T11:45:28.708Z,9.70
2022-11-29T11:48:52.764Z,9.70
2022-11-29T11:52:22.876Z,9.80
2022-11-29T11:55:56.384Z,9.90
2022-11-29T11:59:22.694Z,9.90
2022-11-29T12:02:46.624Z,9.90
2022-11-29T12:06:29.776Z,9.90
2022-11-29T12:09:57.613Z,9.90
2022-11-29T12:13:29.677Z,9.90
2022-11-29T12:17:01.389Z,9.90
2022-11-29T12:20:29.422Z,9.90
2022-11-29T12:23:58.626Z,9.80
2022-11-29T12:27:22.415Z,9.80
2022-11-29T12:30:58.879Z,9.70
2022-11-29T12:34:45.823Z,9.70
2022-11-29T12:38:21.761Z,9.60
2022-11-29T12:41:54.203Z,9.50
2022-11-29T12:45:40.245Z,9.50
2022-11-29T12:49:13.760Z,9.50
2022-11-29T12:52:46.887Z,9.50
2022-11-29T12:56:16.632Z,9.50
2022-11-29T12:59:57.451Z,9.40
2022-11-29T13:03:28.321Z,9.40
2022-11-29T13:07:00.725Z,9.50
2022-11-29T13:10:35.564Z,9.50
2022-11-29T13:14:40.994Z,9.40
2022-11-29T13:17:57.658Z,9.40
2022-11-29T13:21:26.912Z,9.50
2022-11-29T13:24:54.897Z,9.40
2022-11-29T13:28:24.164Z,9.30
2022-11-29T13:31:48.653Z,9.30
2022-11-29T13:35:21.060Z,9.30
2022-11-29T13:38:51.944Z,9.30
2022-11-29T13:42:23.705Z,9.40
2022-11-29T13:45:53.425Z,9.30
2022-11-29T13:49:44.628Z,9.40
2022-11-29T13:53:14.998Z,9.50
2022-11-29T13:56:46.258Z,9.50
2022-11-29T14:00:29.783Z,9.50
2022-11-29T14:04:05.502Z,9.60
2022-11-29T14:07:29.289Z,9.60
2022-11-29T14:10:54.150Z,9.60
2022-11-29T14:14:27.089Z,9.60
2022-11-29T14:17:57.934Z,9.60
2022-11-29T14:21:21.693Z,9.60
2022-11-29T14:24:57.915Z,9.60
2022-11-29T14:28:33.490Z,9.60
2022-11-29T14:31:57.335Z,9.70
2022-11-29T14:35:29.504Z,9.60
2022-11-29T14:39:04.927Z,9.70
2022-11-29T14:42:30.092Z,9.70
2022-11-29T14:46:09.697Z,9.70
2022-11-29T14:49:40.500Z,9.60
2022-11-29T14:53:06.904Z,9.60
2022-11-29T14:56:42.447Z,9.60
2022-11-29T15:00:11.082Z,9.60
2022-11-29T15:03:45.005Z,9.60
2022-11-29T15:07:15.076Z,9.60
2022-11-29T15:10:43.065Z,9.70
2022-11-29T15:14:12.514Z,9.60
2022-11-29T15:17:46.609Z,9.60
2022-11-29T15:21:23.919Z,9.60
2022-11-29T15:24:52.673Z,9.50
2022-11-29T15:28:23.527Z,9.60
2022-11-29T15:31:50.773Z,9.50
2022-11-29T15:35:19.393Z,9.40
2022-11-29T15:38:45.238Z,9.40
2022-11-29T15:42:14.387Z,9.40
2022-11-29T15:45:40.830Z,9.40
2022-11-29T15:49:17.046Z,9.40
2022-11-29T15:52:41.180Z,9.30
2022-11-29T15:56:13.221Z,9.30
2022-11-29T15:59:40.760Z,9.20
2022-11-29T16:03:08.616Z,9.10
2022-11-29T16:06:40.312Z,9.10
2022-11-29T16:10:11.240Z,9.20
2022-11-29T16:13:37.824Z,9.30
2022-11-29T16:17:03.245Z,9.20
2022-11-29T16:20:29.732Z,9.10
2022-11-29T16:23:53.762Z,9.20
2022-11-29T16:27:19.291Z,9.10
2022-11-29T16:30:43.243Z,9.10
2022-11-29T16:34:16.108Z,9.10
2022-11-29T16:37:43.243Z,9.00
2022-11-29T16:41:15.288Z,9.10
2022-11-29T16:44:59.941Z,9.10
2022-11-29T16:48:31.949Z,9.10
2022-11-29T16:51:55.900Z,9.10
2022-11-29T16:55:21.222Z,9.00
2022-11-29T16:59:17.169Z,9.00
2022-11-29T17:02:31.100Z,9.00
2022-11-29T17:05:54.857Z,9.00
2022-11-29T17:09:24.547Z,8.90
2022-11-29T17:12:50.107Z,8.90
2022-11-29T17:16:15.710Z,8.90
2022-11-29T17:19:39.510Z,8.90
2022-11-29T17:23:03.005Z,8.90
2022-11-29T17:26:26.471Z,8.80
2022-11-29T17:29:51.481Z,8.90
2022-11-29T17:33:15.132Z,8.80
2022-11-29T17:36:38.930Z,8.80
2022-11-29T17:40:02.483Z,8.90
2022-11-29T17:43:26.104Z,9.00
2022-11-29T17:46:51.251Z,8.90
2022-11-29T17:50:14.860Z,9.00
2022-11-29T17:53:38.550Z,9.00
2022-11-29T17:57:03.661Z,9.10
2022-11-29T18:00:27.247Z,9.00
2022-11-29T18:03:54.004Z,9.00
2022-11-29T18:07:18.276Z,8.90
2022-11-29T18:10:42.188Z,8.90
2022-11-29T18:14:08.600Z,8.90
2022-11-29T18:17:32.293Z,8.90
2022-11-29T18:21:01.862Z,8.90
2022-11-29T18:24:25.549Z,8.90
2022-11-29T18:27:49.641Z,8.90
2022-11-29T18:31:20.337Z,8.90
2022-11-29T18:34:44.349Z,8.90
2022-11-29T18:38:16.910Z,8.90
2022-11-29T18:41:42.681Z,8.90
2022-11-29T18:45:07.997Z,8.80
2022-11-29T18:48:31.753Z,8.80
2022-11-29T18:51:57.580Z,8.80
2022-11-29T18:55:22.746Z,8.80
2022-11-29T18:58:53.023Z,8.80
2022-11-29T19:02:20.360Z,8.70
2022-11-29T19:05:51.575Z,8.70
2022-11-29T19:09:18.204Z,8.80
2022-11-29T19:12:43.165Z,8.80
2022-11-29T19:16:12.995Z,8.90
2022-11-29T19:19:36.771Z,8.90
2022-11-29T19:23:00.721Z,8.90
2022-11-29T19:26:27.622Z,9.00
2022-11-29T19:29:52.622Z,8.90
2022-11-29T19:33:16.284Z,8.90
2022-11-29T19:36:42.774Z,8.90
2022-11-29T19:40:08.799Z,8.80
2022-11-29T19:43:33.087Z,8.90
2022-11-29T19:46:58.034Z,8.90
2022-11-29T19:50:21.634Z,8.90
2022-11-29T19:53:46.249Z,8.90
2022-11-29T19:57:09.922Z,8.90
2022-11-29T20:00:34.033Z,8.90
2022-11-29T20:03:59.719Z,8.90
2022-11-29T20:07:23.462Z,8.90
2022-11-29T20:10:47.021Z,8.90
2022-11-29T20:14:13.119Z,8.90
2022-11-29T20:17:36.661Z,9.00
2022-11-29T20:21:06.093Z,8.90
2022-11-29T20:24:33.378Z,8.90
2022-11-29T20:28:00.258Z,8.90
2022-11-29T20:31:24.560Z,8.90
2022-11-29T20:34:48.934Z,8.90
2022-11-29T20:38:29.343Z,8.90
2022-11-29T20:42:12.885Z,8.80
2022-11-29T20:45:38.018Z,8.80
2022-11-29T20:49:06.537Z,8.80
2022-11-29T20:52:39.330Z,8.80
2022-11-29T20:56:05.630Z,8.90
2022-11-29T20:59:29.159Z,8.90
2022-11-29T21:02:52.699Z,8.90
2022-11-29T21:06:16.394Z,8.90
2022-11-29T21:09:39.917Z,9.00
2022-11-29T21:13:05.293Z,9.00
2022-11-29T21:16:29.804Z,9.10
2022-11-29T21:19:53.801Z,9.10
2022-11-29T21:23:26.140Z,9.10
2022-11-29T21:26:52.332Z,9.20
2022-11-29T21:30:19.387Z,9.20
2022-11-29T21:33:43.498Z,9.20
2022-11-29T21:37:09.701Z,9.20
2022-11-29T21:40:34.047Z,9.20
2022-11-29T21:44:08.342Z,9.20
2022-11-29T21:47:34.353Z,9.10
2022-11-29T21:50:57.909Z,9.10
2022-11-29T21:54:21.451Z,9.10
2022-11-29T21:57:44.997Z,9.10
2022-11-29T22:01:11.301Z,9.00
2022-11-29T22:04:36.268Z,9.10
2022-11-29T22:07:59.906Z,9.10
2022-11-29T22:11:31.675Z,9.20
2022-11-29T22:14:55.227Z,9.10
2022-11-29T22:18:18.752Z,9.20
2022-11-29T22:21:45.547Z,9.20
2022-11-29T22:25:09.772Z,9.20
2022-11-29T22:28:33.707Z,9.20
2022-11-29T22:31:59.162Z,9.10
2022-11-29T22:35:22.753Z,8.70
2022-11-29T22:38:47.629Z,8.50
2022-11-29T22:42:11.321Z,8.30
2022-11-29T22:45:34.949Z,8.20
2022-11-29T22:49:00.506Z,8.10
2022-11-29T22:52:24.203Z,8.10
2022-11-29T22:55:49.124Z,8.10
2022-11-29T22:59:12.841Z,8.10
2022-11-29T23:02:36.400Z,8.10
2022-11-29T23:06:04.679Z,8.20
2022-11-29T23:09:28.973Z,8.20
2022-11-29T23:12:54.276Z,8.20
2022-11-29T23:16:19.958Z,8.30
2022-11-29T23:19:43.660Z,8.30
2022-11-29T23:23:07.261Z,8.40
2022-11-29T23:26:33.853Z,8.40
2022-11-29T23:29:58.855Z,8.30
2022-11-29T23:33:23.515Z,8.30
2022-11-29T23:36:52.577Z,8.30
2022-11-29T23:40:17.451Z,8.30
2022-11-29T23:43:42.513Z,8.30
2022-11-29T23:47:07.594Z,8.30
2022-11-29T23:50:31.405Z,8.40
2022-11-29T23:53:55.653Z,8.40
2022-11-29T23:57:19.687Z,8.40
